KEGE/EGE METAR and TAF weather

Enter ICAO airport designator
Station Type Date Time Source
KEGE METAR 2021/08/04 19:56 UTC NOAA

KEGE 041956Z 27005KT 10SM FEW070 SCT085 24/08 A3036 RMK AO2 SLP223 T02390083 PNO $


Station Type Date Time Source
KEGE Decoded METAR 2021/08/04 19:56 UTC NOAA

Eagle County Regional, CO, United States (KEGE) 39-39N 106-55W
Aug 04, 2021 - 03:56 PM EDT / 2021.08.04 1956 UTC
Wind: from the W (270 degrees) at 6 MPH (5 KT):0
Visibility: 10 mile(s):0
Sky conditions: partly cloudy
Temperature: 75.0 F (23.9 C)
Dew Point: 46.9 F (8.3 C)
Relative Humidity: 36%
Pressure (altimeter): 30.36 in. Hg (1028 hPa)
ob: KEGE 041956Z 27005KT 10SM FEW070 SCT085 24/08 A3036 RMK AO2 SLP223 T02390083 PNO
cycle: 20

Station Type Date Time Source
KEGE TAF 2021/08/04 18:34 UTC NOAA

TAF KEGE 041731Z 0418/0518 04006KT P6SM FEW100
FM042000 03009KT P6SM FEW080 FEW250

Example: see airport list